Terminal Aerodrome Forecast
Issued by NWS

Home | Current Version | Previous Version | Graphics & Text | Print | Product List | Glossary On
Versions: 1 2 3 4 5 6 7 8 9 10 11 12 13 14 15
000
FTUS43 KMPX 041738
TAFRWF
TAF
KRWF 041738Z 0418/0518 24010KT P6SM SKC
      TEMPO 0418/0420 BKN013
     FM050600 18006KT P6SM SCT200
     FM051000 15008KT P6SM OVC100
     FM051500 17012G20KT P6SM OVC090=

USA.gov is the U.S. government's official web portal to all federal, state and local government web resources and services.